METAR Data
IDs: Format: Raw Decoded Include TAF

Data at: 1011 UTC 18 Jan 2022

ESST 180950Z 00000KT CAVOK M04/M07 Q1023